createdAt,value
2023-04-10T00:00:04.707Z,72.30
2023-04-10T00:02:40.327Z,71.55
2023-04-10T00:05:13.624Z,71.24
2023-04-10T00:07:46.150Z,70.81
2023-04-10T00:10:18.452Z,70.75
2023-04-10T00:12:51.419Z,70.39
2023-04-10T00:15:23.704Z,69.86
2023-04-10T00:17:58.573Z,69.49
2023-04-10T00:20:30.969Z,70.01
2023-04-10T00:23:03.275Z,70.24
2023-04-10T00:25:35.618Z,70.98
2023-04-10T00:28:07.958Z,70.85
2023-04-10T00:30:40.214Z,70.46
2023-04-10T00:33:14.958Z,71.04
2023-04-10T00:35:47.205Z,70.92
2023-04-10T00:38:19.739Z,70.56
2023-04-10T00:40:52.005Z,70.54
2023-04-10T00:43:24.555Z,70.64
2023-04-10T00:45:57.044Z,70.95
2023-04-10T00:48:32.295Z,71.60
2023-04-10T00:51:06.234Z,71.51
2023-04-10T00:53:38.646Z,71.33
2023-04-10T00:56:13.169Z,71.17
2023-04-10T00:58:45.529Z,71.01
2023-04-10T01:01:18.034Z,70.92
2023-04-10T01:03:54.102Z,70.45
2023-04-10T01:06:38.662Z,70.34
2023-04-10T01:09:21.528Z,70.14
2023-04-10T01:11:59.621Z,70.11
2023-04-10T01:14:41.921Z,70.44
2023-04-10T01:17:22.054Z,70.18
2023-04-10T01:20:11.017Z,70.07
2023-04-10T01:23:10.733Z,70.20
2023-04-10T01:25:51.692Z,70.04
2023-04-10T01:29:00.729Z,69.93
2023-04-10T01:31:41.427Z,69.88
2023-04-10T01:34:20.215Z,69.95
2023-04-10T01:36:57.559Z,69.92
2023-04-10T01:39:32.020Z,69.78
2023-04-10T01:42:05.899Z,69.85
2023-04-10T01:44:45.713Z,69.86
2023-04-10T01:47:20.859Z,69.78
2023-04-10T01:49:55.535Z,69.80
2023-04-10T01:52:29.176Z,69.74
2023-04-10T01:55:04.892Z,69.86
2023-04-10T01:57:38.848Z,69.69
2023-04-10T02:00:15.295Z,69.87
2023-04-10T02:02:48.724Z,69.84
2023-04-10T02:05:22.326Z,69.84
2023-04-10T02:08:07.052Z,69.86
2023-04-10T02:10:51.822Z,69.92
2023-04-10T02:13:28.499Z,69.99
2023-04-10T02:16:08.019Z,69.97
2023-04-10T02:18:42.515Z,69.96
2023-04-10T02:21:14.851Z,69.89
2023-04-10T02:23:47.306Z,70.04
2023-04-10T02:26:19.499Z,69.96
2023-04-10T02:28:51.680Z,69.90
2023-04-10T02:31:28.168Z,69.88
2023-04-10T02:34:00.509Z,69.87
2023-04-10T02:36:32.903Z,69.90
2023-04-10T02:39:05.129Z,69.83
2023-04-10T02:41:37.472Z,69.71
2023-04-10T02:44:09.687Z,69.71
2023-04-10T02:46:44.622Z,69.97
2023-04-10T02:49:16.891Z,69.94
2023-04-10T02:51:49.156Z,70.05
2023-04-10T02:54:21.876Z,69.89
2023-04-10T02:56:54.092Z,69.79
2023-04-10T02:59:26.675Z,70.00
2023-04-10T03:02:01.628Z,69.91
2023-04-10T03:04:36.905Z,69.94
2023-04-10T03:07:09.191Z,70.03
2023-04-10T03:09:41.439Z,69.90
2023-04-10T03:12:13.687Z,69.76
2023-04-10T03:14:45.943Z,69.65
2023-04-10T03:17:20.833Z,69.80
2023-04-10T03:19:53.024Z,69.84
2023-04-10T03:22:25.194Z,69.58
2023-04-10T03:24:57.876Z,69.70
2023-04-10T03:27:32.385Z,69.62
2023-04-10T03:30:05.495Z,69.85
2023-04-10T03:32:42.491Z,69.81
2023-04-10T03:35:14.904Z,69.81
2023-04-10T03:37:47.112Z,69.80
2023-04-10T03:40:19.641Z,69.81
2023-04-10T03:42:51.883Z,69.91
2023-04-10T03:45:24.441Z,69.89
2023-04-10T03:47:59.356Z,69.88
2023-04-10T03:50:31.765Z,69.96
2023-04-10T03:53:04.966Z,70.11
2023-04-10T03:55:38.719Z,69.94
2023-04-10T03:58:11.006Z,69.88
2023-04-10T04:00:43.290Z,70.07
2023-04-10T04:03:18.425Z,70.08
2023-04-10T04:05:51.147Z,70.06
2023-04-10T04:08:23.347Z,69.91
2023-04-10T04:10:55.557Z,70.05
2023-04-10T04:13:28.136Z,70.18
2023-04-10T04:16:00.401Z,69.96
2023-04-10T04:18:35.257Z,69.97
2023-04-10T04:21:08.590Z,69.92
2023-04-10T04:23:40.906Z,69.92
2023-04-10T04:26:13.191Z,70.03
2023-04-10T04:28:45.516Z,70.12
2023-04-10T04:31:17.771Z,70.27
2023-04-10T04:33:52.897Z,70.11
2023-04-10T04:36:25.329Z,70.06
2023-04-10T04:38:57.776Z,70.19
2023-04-10T04:41:30.909Z,70.08
2023-04-10T04:44:04.003Z,70.06
2023-04-10T04:46:36.419Z,70.34
2023-04-10T04:49:11.182Z,70.61
2023-04-10T04:51:43.422Z,70.56
2023-04-10T04:54:15.634Z,70.43
2023-04-10T04:56:47.822Z,70.34
2023-04-10T04:59:20.093Z,70.31
2023-04-10T05:01:52.404Z,70.24
2023-04-10T05:04:27.633Z,70.37
2023-04-10T05:06:59.944Z,70.36
2023-04-10T05:09:32.152Z,70.34
2023-04-10T05:12:04.414Z,70.30
2023-04-10T05:14:36.745Z,70.27
2023-04-10T05:17:08.965Z,70.19
2023-04-10T05:19:43.823Z,70.13
2023-04-10T05:22:18.533Z,69.99
2023-04-10T05:24:50.958Z,69.73
2023-04-10T05:27:23.597Z,69.68
2023-04-10T05:29:55.894Z,69.53
2023-04-10T05:32:28.173Z,69.53
2023-04-10T05:35:03.025Z,69.32
2023-04-10T05:37:35.263Z,69.17
2023-04-10T05:40:07.934Z,68.94
2023-04-10T05:42:40.179Z,68.53
2023-04-10T05:45:15.149Z,68.26
2023-04-10T05:47:47.551Z,67.97
2023-04-10T05:50:23.193Z,68.10
2023-04-10T05:52:56.512Z,67.94
2023-04-10T05:55:28.823Z,67.69
2023-04-10T05:58:01.015Z,67.56
2023-04-10T06:00:33.244Z,67.11
2023-04-10T06:03:05.550Z,66.85
2023-04-10T06:05:41.471Z,66.88
2023-04-10T06:08:13.650Z,66.63
2023-04-10T06:10:46.329Z,66.62
2023-04-10T06:13:18.682Z,66.49
2023-04-10T06:15:51.027Z,66.12
2023-04-10T06:18:23.365Z,66.00
2023-04-10T06:21:00.555Z,65.60
2023-04-10T06:23:32.937Z,65.37
2023-04-10T06:26:06.232Z,65.23
2023-04-10T06:28:38.446Z,65.02
2023-04-10T06:31:11.618Z,64.62
2023-04-10T06:33:43.904Z,64.36
2023-04-10T06:36:18.809Z,64.49
2023-04-10T06:38:51.222Z,64.36
2023-04-10T06:41:23.640Z,64.15
2023-04-10T06:43:56.521Z,63.81
2023-04-10T06:46:28.838Z,63.84
2023-04-10T06:49:01.066Z,63.42
2023-04-10T06:51:36.088Z,63.26
2023-04-10T06:54:08.394Z,63.06
2023-04-10T06:56:40.800Z,62.52
2023-04-10T06:59:13.156Z,61.97
2023-04-10T07:01:45.557Z,61.72
2023-04-10T07:04:17.842Z,61.06
2023-04-10T07:06:52.669Z,60.54
2023-04-10T07:09:24.907Z,59.92
2023-04-10T07:11:57.192Z,59.23
2023-04-10T07:14:29.473Z,58.42
2023-04-10T07:17:01.738Z,57.81
2023-04-10T07:19:34.170Z,58.11
2023-04-10T07:22:08.948Z,57.49
2023-04-10T07:24:41.160Z,57.56
2023-04-10T07:27:13.803Z,57.44
2023-04-10T07:29:46.083Z,56.77
2023-04-10T07:32:18.393Z,56.30
2023-04-10T07:34:50.687Z,55.98
2023-04-10T07:37:25.483Z,55.73
2023-04-10T07:39:57.720Z,55.78
2023-04-10T07:42:35.839Z,55.62
2023-04-10T07:45:08.591Z,55.24
2023-04-10T07:47:41.024Z,55.12
2023-04-10T07:50:13.925Z,55.34
2023-04-10T07:52:48.726Z,55.44
2023-04-10T07:55:21.201Z,54.78
2023-04-10T07:57:53.433Z,54.73
2023-04-10T08:00:25.976Z,54.35
2023-04-10T08:02:58.463Z,53.79
2023-04-10T08:05:31.213Z,53.42
2023-04-10T08:08:06.250Z,53.17
2023-04-10T08:10:40.621Z,53.04
2023-04-10T08:13:12.872Z,53.17
2023-04-10T08:15:45.233Z,53.01
2023-04-10T08:18:17.484Z,53.09
2023-04-10T08:20:49.690Z,53.38
2023-04-10T08:23:24.469Z,53.84
2023-04-10T08:25:56.688Z,53.13
2023-04-10T08:28:28.871Z,52.83
2023-04-10T08:31:01.106Z,52.76
2023-04-10T08:33:34.408Z,52.40
2023-04-10T08:36:06.767Z,52.21
2023-04-10T08:38:41.557Z,52.47
2023-04-10T08:41:15.688Z,52.07
2023-04-10T08:43:50.073Z,52.16
2023-04-10T08:46:22.639Z,52.39
2023-04-10T08:49:02.732Z,52.73
2023-04-10T08:51:43.104Z,52.15
2023-04-10T08:54:25.167Z,51.96
2023-04-10T08:57:01.605Z,51.85
2023-04-10T08:59:34.440Z,51.93
2023-04-10T09:02:07.505Z,52.10
2023-04-10T09:04:40.528Z,51.88
2023-04-10T09:07:12.882Z,51.77
2023-04-10T09:09:47.926Z,51.42
2023-04-10T09:12:21.342Z,51.48
2023-04-10T09:14:53.699Z,51.89
2023-04-10T09:17:27.673Z,52.07
2023-04-10T09:20:00.509Z,51.75
2023-04-10T09:22:37.863Z,51.71
2023-04-10T09:25:34.145Z,51.84
2023-04-10T09:28:11.433Z,52.28
2023-04-10T09:30:46.488Z,52.57
2023-04-10T09:33:27.719Z,52.39
2023-04-10T09:36:04.379Z,52.50
2023-04-10T09:38:36.718Z,52.60
2023-04-10T09:41:14.450Z,52.62
2023-04-10T09:43:47.169Z,52.70
2023-04-10T09:46:31.463Z,53.06
2023-04-10T09:49:05.474Z,52.56
2023-04-10T09:51:39.809Z,52.18
2023-04-10T09:54:12.029Z,52.15
2023-04-10T09:56:51.734Z,51.92
2023-04-10T09:59:24.022Z,51.81
2023-04-10T10:01:56.498Z,51.26
2023-04-10T10:04:30.775Z,51.46
2023-04-10T10:07:03.431Z,51.28
2023-04-10T10:09:36.391Z,51.02
2023-04-10T10:12:14.782Z,51.23
2023-04-10T10:14:54.144Z,50.54
2023-04-10T10:17:33.867Z,50.28
2023-04-10T10:20:11.419Z,50.39
2023-04-10T10:22:45.263Z,50.40
2023-04-10T10:25:18.074Z,50.07
2023-04-10T10:27:56.214Z,49.81
2023-04-10T10:30:30.349Z,49.14
2023-04-10T10:33:03.820Z,49.66
2023-04-10T10:35:36.447Z,49.24
2023-04-10T10:38:09.831Z,48.86
2023-04-10T10:40:53.158Z,48.31
2023-04-10T10:43:39.649Z,48.05
2023-04-10T10:46:16.698Z,47.69
2023-04-10T10:49:00.932Z,48.30
2023-04-10T10:51:51.696Z,48.14
2023-04-10T10:54:47.155Z,47.86
2023-04-10T10:57:50.315Z,48.45
2023-04-10T11:00:26.967Z,48.25
2023-04-10T11:03:31.826Z,48.15
2023-04-10T11:06:07.295Z,47.85
2023-04-10T11:08:47.826Z,47.84
2023-04-10T11:11:23.620Z,47.37
2023-04-10T11:14:21.612Z,47.54
2023-04-10T11:16:56.506Z,46.89
2023-04-10T11:19:28.788Z,46.95
2023-04-10T11:22:09.556Z,46.60
2023-04-10T11:25:02.063Z,46.52
2023-04-10T11:27:45.831Z,45.87
2023-04-10T11:30:37.739Z,45.58
2023-04-10T11:33:12.597Z,45.96
2023-04-10T11:35:45.139Z,46.53
2023-04-10T11:38:20.081Z,46.38
2023-04-10T11:41:04.593Z,45.46
2023-04-10T11:43:37.933Z,45.73
2023-04-10T11:46:11.474Z,45.73
2023-04-10T11:48:46.442Z,45.78
2023-04-10T11:51:19.174Z,45.59
2023-04-10T11:53:51.366Z,45.48
2023-04-10T11:56:25.132Z,45.21
2023-04-10T11:58:57.832Z,45.40
2023-04-10T12:01:30.192Z,45.43
2023-04-10T12:04:07.976Z,45.73
2023-04-10T12:06:40.545Z,45.51
2023-04-10T12:09:18.216Z,45.56
2023-04-10T12:11:54.591Z,45.36
2023-04-10T12:14:27.971Z,45.43
2023-04-10T12:17:01.325Z,45.68
2023-04-10T12:19:37.852Z,45.48
2023-04-10T12:22:10.223Z,45.43
2023-04-10T12:24:47.656Z,45.56
2023-04-10T12:27:23.855Z,45.27
2023-04-10T12:29:59.643Z,45.09
2023-04-10T12:32:31.941Z,44.96
2023-04-10T12:35:06.743Z,44.78
2023-04-10T12:37:52.424Z,44.96
2023-04-10T12:40:25.112Z,44.87
2023-04-10T12:42:57.671Z,44.81
2023-04-10T12:45:47.431Z,44.69
2023-04-10T12:48:28.568Z,45.60
2023-04-10T12:51:04.219Z,45.80
2023-04-10T12:53:47.691Z,45.65
2023-04-10T12:56:28.633Z,45.78
2023-04-10T12:59:11.141Z,46.07
2023-04-10T13:01:43.747Z,46.11
2023-04-10T13:04:16.162Z,46.30
2023-04-10T13:06:53.047Z,46.58
2023-04-10T13:09:25.368Z,47.16
2023-04-10T13:11:57.865Z,47.26
2023-04-10T13:14:30.117Z,47.17
2023-04-10T13:17:02.365Z,47.23
2023-04-10T13:19:34.680Z,47.55
2023-04-10T13:22:09.583Z,47.60
2023-04-10T13:24:41.891Z,47.63
2023-04-10T13:27:14.711Z,47.50
2023-04-10T13:29:47.806Z,48.17
2023-04-10T13:32:20.003Z,48.55
2023-04-10T13:34:52.550Z,49.21
2023-04-10T13:37:27.415Z,49.94
2023-04-10T13:39:59.650Z,50.51
2023-04-10T13:42:31.816Z,51.37
2023-04-10T13:45:04.294Z,52.59
2023-04-10T13:47:36.576Z,52.77
2023-04-10T13:50:09.552Z,53.60
2023-04-10T13:52:44.422Z,54.93
2023-04-10T13:55:16.943Z,56.10
2023-04-10T13:57:49.094Z,57.63
2023-04-10T14:00:22.510Z,57.89
2023-04-10T14:02:54.927Z,58.36
2023-04-10T14:05:27.229Z,58.03
2023-04-10T14:08:02.030Z,58.39
2023-04-10T14:10:34.236Z,58.16
2023-04-10T14:13:06.478Z,57.93
2023-04-10T14:15:38.680Z,58.22
2023-04-10T14:18:11.018Z,59.62
2023-04-10T14:20:44.530Z,59.88
2023-04-10T14:23:19.789Z,61.19
2023-04-10T14:25:54.429Z,62.70
2023-04-10T14:28:26.656Z,62.16
2023-04-10T14:30:58.853Z,62.55
2023-04-10T14:33:31.209Z,64.13
2023-04-10T14:36:03.620Z,64.68
2023-04-10T14:38:38.708Z,65.78
2023-04-10T14:41:11.587Z,66.75
2023-04-10T14:43:44.769Z,68.27
2023-04-10T14:46:17.033Z,69.44
2023-04-10T14:48:49.313Z,70.85
2023-04-10T14:51:21.705Z,70.62
2023-04-10T14:53:56.601Z,71.07
2023-04-10T14:56:28.855Z,70.53
2023-04-10T14:59:01.070Z,71.25
2023-04-10T15:01:33.280Z,71.59
2023-04-10T15:04:05.660Z,71.91
2023-04-10T15:06:38.324Z,72.90
2023-04-10T15:09:13.162Z,73.15
2023-04-10T15:11:45.349Z,73.29
2023-04-10T15:14:17.647Z,74.66
2023-04-10T15:16:51.955Z,75.47
2023-04-10T15:19:25.728Z,75.82
2023-04-10T15:21:58.139Z,76.76
2023-04-10T15:24:43.269Z,77.17
2023-04-10T15:27:23.821Z,77.64
2023-04-10T15:29:56.051Z,77.50
2023-04-10T15:32:28.450Z,77.85
2023-04-10T15:35:00.687Z,78.30
2023-04-10T15:37:32.890Z,79.64
2023-04-10T15:40:08.243Z,79.35
2023-04-10T15:42:41.070Z,79.55
2023-04-10T15:45:13.477Z,79.82
2023-04-10T15:47:45.676Z,80.29
2023-04-10T15:50:18.082Z,80.67
2023-04-10T15:52:50.255Z,81.24
2023-04-10T15:55:25.139Z,81.24
2023-04-10T15:57:57.339Z,81.45
2023-04-10T16:00:29.766Z,81.82
2023-04-10T16:03:02.101Z,81.66
2023-04-10T16:05:34.398Z,82.38
2023-04-10T16:08:07.330Z,83.14
2023-04-10T16:10:42.099Z,84.12
2023-04-10T16:13:14.586Z,83.67
2023-04-10T16:15:47.369Z,83.90
2023-04-10T16:18:19.617Z,83.70
2023-04-10T16:20:51.791Z,83.85
2023-04-10T16:23:24.048Z,84.29
2023-04-10T16:25:58.782Z,84.89
2023-04-10T16:28:31.696Z,85.93
2023-04-10T16:31:03.995Z,86.51
2023-04-10T16:33:36.180Z,86.77
2023-04-10T16:36:09.346Z,87.72
2023-04-10T16:38:41.632Z,88.25
2023-04-10T16:41:17.770Z,88.74
2023-04-10T16:43:50.054Z,89.11
2023-04-10T16:46:22.292Z,90.15
2023-04-10T16:48:54.624Z,90.85
2023-04-10T16:51:27.648Z,90.98
2023-04-10T16:53:59.906Z,91.23
2023-04-10T16:56:35.684Z,91.53
2023-04-10T16:59:07.872Z,92.04
2023-04-10T17:01:40.866Z,92.15
2023-04-10T17:04:13.704Z,91.89
2023-04-10T17:06:46.073Z,92.49
2023-04-10T17:09:18.275Z,92.54
2023-04-10T17:11:53.502Z,92.82
2023-04-10T17:14:25.801Z,92.12
2023-04-10T17:16:58.079Z,90.92
2023-04-10T17:19:30.656Z,91.39
2023-04-10T17:22:03.031Z,92.46
2023-04-10T17:24:35.253Z,92.46
2023-04-10T17:27:10.184Z,92.93
2023-04-10T17:29:42.967Z,93.35
2023-04-10T17:32:15.159Z,92.80
2023-04-10T17:34:47.335Z,92.36
2023-04-10T17:37:19.977Z,92.62
2023-04-10T17:39:54.682Z,92.54
2023-04-10T17:42:29.481Z,92.88
2023-04-10T17:45:02.142Z,92.86
2023-04-10T17:47:34.351Z,92.62
2023-04-10T17:50:06.609Z,92.14
2023-04-10T17:52:39.088Z,92.14
2023-04-10T17:55:12.450Z,92.00
2023-04-10T17:57:47.220Z,91.89
2023-04-10T18:00:20.997Z,92.00
2023-04-10T18:02:58.391Z,91.95
2023-04-10T18:05:30.937Z,92.20
2023-04-10T18:08:03.191Z,92.03
2023-04-10T18:10:35.399Z,92.23
2023-04-10T18:13:10.813Z,92.34
2023-04-10T18:15:43.109Z,92.47
2023-04-10T18:18:15.278Z,92.57
2023-04-10T18:20:47.536Z,92.18
2023-04-10T18:23:19.681Z,92.24
2023-04-10T18:25:57.014Z,92.35
2023-04-10T18:28:31.851Z,92.27
2023-04-10T18:31:04.921Z,92.56
2023-04-10T18:33:37.246Z,92.24
2023-04-10T18:36:11.039Z,92.04
2023-04-10T18:38:44.098Z,91.92
2023-04-10T18:41:16.451Z,91.64
2023-04-10T18:43:57.816Z,91.60
2023-04-10T18:46:36.263Z,91.19
2023-04-10T18:49:08.486Z,91.26
2023-04-10T18:51:40.914Z,91.04
2023-04-10T18:54:13.109Z,90.42
2023-04-10T18:56:45.290Z,91.15
2023-04-10T18:59:20.044Z,91.05
2023-04-10T19:01:52.396Z,90.85
2023-04-10T19:04:24.782Z,90.94
2023-04-10T19:06:57.024Z,90.72
2023-04-10T19:09:29.246Z,90.65
2023-04-10T19:12:01.651Z,90.82
2023-04-10T19:14:39.685Z,90.82
2023-04-10T19:17:11.859Z,90.38
2023-04-10T19:19:44.767Z,90.48
2023-04-10T19:22:17.350Z,90.42
2023-04-10T19:24:49.600Z,89.87
2023-04-10T19:27:21.898Z,89.85
2023-04-10T19:29:56.657Z,90.07
2023-04-10T19:32:28.845Z,90.34
2023-04-10T19:35:01.008Z,90.06
2023-04-10T19:37:34.711Z,90.17
2023-04-10T19:40:07.191Z,90.02
2023-04-10T19:42:39.442Z,90.17
2023-04-10T19:45:16.054Z,90.01
2023-04-10T19:47:48.378Z,89.77
2023-04-10T19:50:20.639Z,89.79
2023-04-10T19:52:52.829Z,90.10
2023-04-10T19:55:25.204Z,90.07
2023-04-10T19:57:57.556Z,90.15
2023-04-10T20:00:32.382Z,90.45
2023-04-10T20:03:04.845Z,90.85
2023-04-10T20:05:37.118Z,91.07
2023-04-10T20:08:09.514Z,90.89
2023-04-10T20:10:41.671Z,91.02
2023-04-10T20:13:13.858Z,90.81
2023-04-10T20:15:49.307Z,90.89
2023-04-10T20:18:21.566Z,90.88
2023-04-10T20:20:53.733Z,90.88
2023-04-10T20:23:25.855Z,90.56
2023-04-10T20:25:58.124Z,90.69
2023-04-10T20:28:30.356Z,90.88
2023-04-10T20:31:05.358Z,90.85
2023-04-10T20:33:37.811Z,90.50
2023-04-10T20:36:10.622Z,90.38
2023-04-10T20:38:42.923Z,90.45
2023-04-10T20:41:15.198Z,90.32
2023-04-10T20:43:47.401Z,90.13
2023-04-10T20:46:22.243Z,90.00
2023-04-10T20:48:55.371Z,90.04
2023-04-10T20:51:28.768Z,89.88
2023-04-10T20:54:01.012Z,90.08
2023-04-10T20:56:42.682Z,89.44
2023-04-10T20:59:16.333Z,89.40
2023-04-10T21:01:51.347Z,89.09
2023-04-10T21:04:23.643Z,89.17
2023-04-10T21:06:56.584Z,89.30
2023-04-10T21:09:28.851Z,89.39
2023-04-10T21:12:01.028Z,89.72
2023-04-10T21:14:33.242Z,89.53
2023-04-10T21:17:08.114Z,89.85
2023-04-10T21:19:40.286Z,89.69
2023-04-10T21:22:12.969Z,89.86
2023-04-10T21:24:45.146Z,89.72
2023-04-10T21:27:17.373Z,89.95
2023-04-10T21:29:49.681Z,90.13
2023-04-10T21:32:24.988Z,89.98
2023-04-10T21:34:57.241Z,90.08
2023-04-10T21:37:29.409Z,89.98
2023-04-10T21:40:01.683Z,89.85
2023-04-10T21:42:33.986Z,89.71
2023-04-10T21:45:06.298Z,89.48
2023-04-10T21:47:41.070Z,88.98
2023-04-10T21:50:14.197Z,88.78
2023-04-10T21:52:46.367Z,88.76
2023-04-10T21:55:19.237Z,88.87
2023-04-10T21:57:51.352Z,88.68
2023-04-10T22:00:23.596Z,88.35
2023-04-10T22:02:58.541Z,88.51
2023-04-10T22:05:31.962Z,88.29
2023-04-10T22:08:04.148Z,88.15
2023-04-10T22:10:36.591Z,87.90
2023-04-10T22:13:10.348Z,87.12
2023-04-10T22:15:44.612Z,87.40
2023-04-10T22:18:19.424Z,87.18
2023-04-10T22:20:51.650Z,86.60
2023-04-10T22:23:24.137Z,86.00
2023-04-10T22:25:56.327Z,84.76
2023-04-10T22:28:28.577Z,79.78
2023-04-10T22:31:01.019Z,77.89
2023-04-10T22:33:37.678Z,77.56
2023-04-10T22:36:10.738Z,76.29
2023-04-10T22:41:14.924Z,78.29
2023-04-10T22:43:47.089Z,80.28
2023-04-10T22:46:19.265Z,80.81
2023-04-10T22:48:54.252Z,81.47
2023-04-10T22:51:27.512Z,82.10
2023-04-10T22:53:59.831Z,82.84
2023-04-10T22:56:32.063Z,83.25
2023-04-10T22:59:04.243Z,83.14
2023-04-10T23:01:36.737Z,81.97
2023-04-10T23:04:11.693Z,83.09
2023-04-10T23:06:44.162Z,83.45
2023-04-10T23:09:16.745Z,82.49
2023-04-10T23:11:49.010Z,82.68
2023-04-10T23:14:21.255Z,81.89
2023-04-10T23:16:53.540Z,82.58
2023-04-10T23:19:28.450Z,83.02
2023-04-10T23:22:00.774Z,82.32
2023-04-10T23:24:32.928Z,82.59
2023-04-10T23:27:05.182Z,83.37
2023-04-10T23:29:37.419Z,83.67
2023-04-10T23:32:09.933Z,83.90
2023-04-10T23:34:44.737Z,84.09
2023-04-10T23:37:16.961Z,84.38
2023-04-10T23:39:49.199Z,84.74
2023-04-10T23:42:21.404Z,84.98
2023-04-10T23:44:53.572Z,85.31
2023-04-10T23:47:25.729Z,85.80
2023-04-10T23:50:01.431Z,86.35
2023-04-10T23:52:33.705Z,86.82
2023-04-10T23:55:05.869Z,87.39
2023-04-10T23:57:38.008Z,87.45
